createdAt,value
2022-07-28T00:01:39.678Z,26.00
2022-07-28T00:04:12.341Z,24.93
2022-07-28T00:06:40.905Z,24.70
2022-07-28T00:09:10.659Z,25.37
2022-07-28T00:11:51.991Z,28.93
2022-07-28T00:14:23.278Z,25.03
2022-07-28T00:16:51.627Z,26.67
2022-07-28T00:19:20.184Z,25.07
2022-07-28T00:21:48.574Z,24.47
2022-07-28T00:24:18.237Z,24.97
2022-07-28T00:26:46.951Z,24.57
2022-07-28T00:29:15.268Z,25.30
2022-07-28T00:31:43.629Z,25.80
2022-07-28T00:34:12.448Z,28.60
2022-07-28T00:36:40.983Z,24.07
2022-07-28T00:39:09.358Z,23.20
2022-07-28T00:41:39.046Z,26.37
2022-07-28T00:44:07.867Z,24.70
2022-07-28T00:46:36.646Z,24.57
2022-07-28T00:49:06.405Z,24.70
2022-07-28T00:51:34.836Z,25.10
2022-07-28T00:54:03.528Z,24.60
2022-07-28T00:56:32.513Z,24.70
2022-07-28T00:59:02.098Z,25.90
2022-07-28T01:01:30.578Z,30.87
2022-07-28T01:03:59.628Z,24.73
2022-07-28T01:06:44.872Z,24.37
2022-07-28T01:09:19.128Z,23.07
2022-07-28T01:11:50.781Z,23.20
2022-07-28T01:14:25.663Z,24.80
2022-07-28T01:16:58.421Z,23.40
2022-07-28T01:19:35.529Z,25.17
2022-07-28T01:22:05.096Z,25.27
2022-07-28T01:24:35.438Z,25.40
2022-07-28T01:27:06.288Z,23.87
2022-07-28T01:29:51.492Z,23.67
2022-07-28T01:32:23.795Z,23.17
2022-07-28T01:34:52.922Z,24.57
2022-07-28T01:37:22.106Z,28.43
2022-07-28T01:39:53.234Z,27.73
2022-07-28T01:42:22.823Z,28.50
2022-07-28T01:44:52.362Z,28.43
2022-07-28T01:47:22.290Z,28.63
2022-07-28T01:49:51.669Z,26.10
2022-07-28T01:52:20.780Z,28.30
2022-07-28T01:54:50.226Z,24.87
2022-07-28T01:57:18.874Z,24.07
2022-07-28T01:59:47.358Z,26.33
2022-07-28T02:02:17.793Z,24.80
2022-07-28T02:04:48.599Z,28.20
2022-07-28T02:07:18.123Z,25.73
2022-07-28T02:09:47.548Z,28.03
2022-07-28T02:12:16.921Z,26.40
2022-07-28T02:14:45.586Z,25.60
2022-07-28T02:17:15.646Z,24.80
2022-07-28T02:19:44.541Z,25.33
2022-07-28T02:22:14.297Z,25.00
2022-07-28T02:24:43.166Z,29.40
2022-07-28T02:27:13.512Z,25.17
2022-07-28T02:29:52.186Z,25.60
2022-07-28T02:32:27.397Z,24.50
2022-07-28T02:34:59.663Z,28.20
2022-07-28T02:37:34.412Z,37.33
2022-07-28T02:40:04.305Z,26.13
2022-07-28T02:42:34.571Z,40.90
2022-07-28T02:45:05.263Z,24.37
2022-07-28T02:47:35.036Z,37.23
2022-07-28T02:50:04.848Z,25.43
2022-07-28T02:52:34.733Z,29.00
2022-07-28T02:55:04.533Z,28.13
2022-07-28T02:57:33.295Z,26.33
2022-07-28T03:00:01.556Z,28.33
2022-07-28T03:02:31.045Z,39.83
2022-07-28T03:05:01.830Z,36.13
2022-07-28T03:07:30.590Z,37.13
2022-07-28T03:10:00.795Z,26.23
2022-07-28T03:12:29.112Z,39.47
2022-07-28T03:14:57.445Z,25.17
2022-07-28T03:17:25.698Z,27.93
2022-07-28T03:19:54.113Z,55.00
2022-07-28T03:22:22.333Z,38.07
2022-07-28T03:24:52.480Z,37.47
2022-07-28T03:27:24.573Z,29.07
2022-07-28T03:29:57.122Z,29.67
2022-07-28T03:32:29.029Z,28.87
2022-07-28T03:34:57.288Z,28.23
2022-07-28T03:37:35.283Z,27.73
2022-07-28T03:40:04.735Z,24.53
2022-07-28T03:42:35.365Z,37.73
2022-07-28T03:45:04.053Z,39.67
2022-07-28T03:47:32.495Z,38.57
2022-07-28T03:50:00.843Z,38.10
2022-07-28T03:52:29.190Z,39.13
2022-07-28T03:54:57.484Z,40.03
2022-07-28T03:57:25.927Z,38.40
2022-07-28T03:59:55.620Z,39.97
2022-07-28T04:02:23.937Z,41.40
2022-07-28T04:04:53.324Z,39.83
2022-07-28T04:07:21.571Z,42.97
2022-07-28T04:09:49.785Z,40.70
2022-07-28T04:12:17.987Z,41.23
2022-07-28T04:14:46.188Z,40.87
2022-07-28T04:17:15.780Z,39.63
2022-07-28T04:19:43.996Z,40.67
2022-07-28T04:22:12.298Z,40.97
2022-07-28T04:24:40.488Z,39.83
2022-07-28T04:27:08.724Z,40.67
2022-07-28T04:29:36.955Z,40.93
2022-07-28T04:32:05.344Z,40.30
2022-07-28T04:34:34.983Z,40.23
2022-07-28T04:37:04.110Z,39.43
2022-07-28T04:39:32.367Z,40.63
2022-07-28T04:42:00.560Z,41.10
2022-07-28T04:44:28.728Z,39.60
2022-07-28T04:46:56.895Z,41.27
2022-07-28T04:49:25.118Z,41.97
2022-07-28T04:51:54.769Z,40.47
2022-07-28T04:54:26.891Z,42.07
2022-07-28T04:56:55.224Z,40.57
2022-07-28T04:59:24.274Z,41.20
2022-07-28T05:01:53.567Z,41.33
2022-07-28T05:04:21.909Z,42.30
2022-07-28T05:06:50.255Z,40.97
2022-07-28T05:09:19.849Z,40.93
2022-07-28T05:11:48.207Z,42.23
2022-07-28T05:14:17.565Z,43.20
2022-07-28T05:16:45.970Z,42.17
2022-07-28T05:19:14.262Z,41.93
2022-07-28T05:21:42.605Z,43.80
2022-07-28T05:24:11.228Z,41.90
2022-07-28T05:26:41.096Z,42.03
2022-07-28T05:29:09.445Z,42.47
2022-07-28T05:31:37.748Z,41.57
2022-07-28T05:34:06.441Z,42.80
2022-07-28T05:36:34.994Z,43.63
2022-07-28T05:39:03.558Z,43.73
2022-07-28T05:41:31.757Z,41.40
2022-07-28T05:44:01.334Z,42.97
2022-07-28T05:46:29.532Z,42.43
2022-07-28T05:48:57.811Z,44.80
2022-07-28T05:51:26.648Z,43.87
2022-07-28T05:53:54.875Z,42.97
2022-07-28T05:56:23.130Z,49.43
2022-07-28T05:58:52.307Z,44.07
2022-07-28T06:01:21.910Z,43.67
2022-07-28T06:04:09.977Z,43.07
2022-07-28T06:06:41.171Z,42.33
2022-07-28T06:09:09.423Z,43.40
2022-07-28T06:11:37.685Z,40.67
2022-07-28T06:14:05.891Z,42.33
2022-07-28T06:16:35.442Z,44.63
2022-07-28T06:19:03.698Z,44.57
2022-07-28T06:21:32.940Z,47.03
2022-07-28T06:24:01.391Z,45.60
2022-07-28T06:26:29.590Z,45.60
2022-07-28T06:28:57.812Z,46.97
2022-07-28T06:31:26.105Z,46.07
2022-07-28T06:33:55.739Z,46.20
2022-07-28T06:36:23.996Z,46.00
2022-07-28T06:38:52.228Z,46.13
2022-07-28T06:41:20.469Z,46.13
2022-07-28T06:43:48.694Z,46.43
2022-07-28T06:46:19.358Z,47.47
2022-07-28T06:48:47.792Z,44.80
2022-07-28T06:51:19.144Z,46.60
2022-07-28T06:53:48.415Z,46.93
2022-07-28T06:56:17.061Z,47.60
2022-07-28T06:58:47.167Z,46.17
2022-07-28T07:01:15.851Z,47.87
2022-07-28T07:03:44.392Z,45.27
2022-07-28T07:06:12.724Z,47.47
2022-07-28T07:08:42.310Z,46.17
2022-07-28T07:11:12.875Z,46.57
2022-07-28T07:13:41.075Z,47.33
2022-07-28T07:16:09.402Z,47.50
2022-07-28T07:18:37.588Z,46.87
2022-07-28T07:21:05.862Z,46.40
2022-07-28T07:23:35.373Z,49.27
2022-07-28T07:26:05.225Z,47.23
2022-07-28T07:28:34.772Z,47.60
2022-07-28T07:31:04.165Z,48.40
2022-07-28T07:33:32.519Z,49.43
2022-07-28T07:36:00.744Z,49.47
2022-07-28T07:38:29.466Z,48.47
2022-07-28T07:40:57.826Z,50.03
2022-07-28T07:43:27.450Z,50.50
2022-07-28T07:45:55.684Z,49.07
2022-07-28T07:48:23.975Z,50.10
2022-07-28T07:50:54.197Z,47.63
2022-07-28T07:53:22.831Z,48.00
2022-07-28T07:55:51.096Z,50.77
2022-07-28T07:58:19.348Z,50.93
2022-07-28T08:00:49.022Z,52.70
2022-07-28T08:03:22.577Z,50.77
2022-07-28T08:05:54.737Z,51.37
2022-07-28T08:08:23.904Z,51.30
2022-07-28T08:10:52.154Z,51.53
2022-07-28T08:13:21.305Z,53.53
2022-07-28T08:15:51.137Z,51.23
2022-07-28T08:18:20.483Z,52.10
2022-07-28T08:20:48.725Z,53.00
2022-07-28T08:23:18.031Z,52.57
2022-07-28T08:25:48.917Z,52.23
2022-07-28T08:28:17.185Z,51.53
2022-07-28T08:30:45.429Z,53.10
2022-07-28T08:33:15.043Z,48.03
2022-07-28T08:35:44.247Z,47.10
2022-07-28T08:38:12.705Z,48.93
2022-07-28T08:40:43.660Z,54.87
2022-07-28T08:43:17.079Z,48.80
2022-07-28T08:45:47.153Z,48.93
2022-07-28T08:48:18.187Z,53.23
2022-07-28T08:50:48.023Z,49.20
2022-07-28T08:53:16.308Z,49.27
2022-07-28T08:55:45.319Z,49.67
2022-07-28T08:58:13.968Z,55.43
2022-07-28T09:00:43.292Z,50.27
2022-07-28T09:03:13.069Z,55.57
2022-07-28T09:05:44.173Z,48.93
2022-07-28T09:08:12.883Z,50.17
2022-07-28T09:10:41.073Z,52.67
2022-07-28T09:13:09.333Z,51.17
2022-07-28T09:15:41.886Z,51.93
2022-07-28T09:18:10.212Z,51.03
2022-07-28T09:20:39.352Z,51.90
2022-07-28T09:23:41.912Z,51.63
2022-07-28T09:26:10.833Z,51.27
2022-07-28T09:28:48.883Z,50.57
2022-07-28T09:31:17.387Z,51.83
2022-07-28T09:33:54.919Z,52.57
2022-07-28T09:36:23.256Z,53.47
2022-07-28T09:38:53.239Z,52.83
2022-07-28T09:41:24.091Z,53.00
2022-07-28T09:43:55.320Z,52.67
2022-07-28T09:46:25.035Z,54.47
2022-07-28T09:48:58.961Z,54.43
2022-07-28T09:51:28.033Z,52.83
2022-07-28T09:54:08.425Z,52.90
2022-07-28T09:56:36.714Z,52.13
2022-07-28T09:59:05.193Z,53.63
2022-07-28T10:01:37.215Z,55.97
2022-07-28T10:04:05.922Z,53.63
2022-07-28T10:06:37.702Z,53.43
2022-07-28T10:09:08.088Z,53.87
2022-07-28T10:11:41.338Z,56.03
2022-07-28T10:14:13.583Z,54.83
2022-07-28T10:16:44.340Z,54.73
2022-07-28T10:19:12.658Z,53.90
2022-07-28T10:21:44.081Z,54.10
2022-07-28T10:24:16.397Z,56.53
2022-07-28T10:26:45.911Z,55.67
2022-07-28T10:29:15.141Z,54.73
2022-07-28T10:31:50.255Z,54.47
2022-07-28T10:34:24.632Z,54.93
2022-07-28T10:36:54.576Z,56.37
2022-07-28T13:52:05.555Z,64.57
2022-07-28T13:54:41.205Z,59.60
2022-07-28T13:57:12.691Z,58.43
2022-07-28T13:59:42.475Z,56.60
2022-07-28T14:02:15.119Z,56.70
2022-07-28T14:04:45.871Z,57.80
2022-07-28T14:07:21.100Z,56.17
2022-07-28T14:09:57.736Z,53.33
2022-07-28T14:12:27.962Z,57.50
2022-07-28T14:14:57.263Z,53.23
2022-07-28T14:21:12.623Z,56.47
2022-07-28T14:23:42.545Z,56.80
2022-07-28T14:26:34.401Z,58.23
2022-07-28T14:29:00.055Z,58.70
2022-07-28T14:31:28.577Z,58.13
2022-07-28T14:33:58.589Z,56.43
2022-07-28T14:36:27.088Z,54.53
2022-07-28T14:38:57.269Z,55.27
2022-07-28T16:33:18.440Z,52.43
2022-07-28T16:35:46.780Z,56.10
2022-07-28T16:38:15.010Z,53.83
2022-07-28T16:40:43.242Z,54.90
2022-07-28T16:43:11.460Z,54.73
2022-07-28T16:45:40.855Z,52.13
2022-07-28T16:48:09.080Z,52.50
2022-07-28T16:50:38.802Z,52.30
2022-07-28T16:53:08.925Z,50.80
2022-07-28T16:55:37.181Z,51.00
2022-07-28T16:58:05.361Z,49.60
2022-07-28T17:00:33.626Z,53.50
2022-07-28T17:03:01.872Z,51.77
2022-07-28T17:05:30.165Z,50.07
2022-07-28T17:07:59.734Z,50.63
2022-07-28T17:10:27.924Z,50.43
2022-07-28T17:12:56.383Z,51.70
2022-07-28T17:15:24.688Z,51.83
2022-07-28T17:17:52.938Z,51.57
2022-07-28T17:20:21.523Z,49.23
2022-07-28T17:22:49.817Z,51.00
2022-07-28T17:28:07.759Z,50.70
2022-07-28T17:30:36.475Z,50.13
2022-07-28T17:33:08.787Z,51.20
2022-07-28T17:35:38.434Z,52.13
2022-07-28T17:38:09.046Z,51.60
2022-07-28T17:40:40.068Z,51.90
2022-07-28T17:43:11.717Z,57.00
2022-07-28T17:45:39.949Z,53.83
2022-07-28T17:48:08.172Z,53.77
2022-07-28T17:50:36.427Z,50.20
2022-07-28T17:53:04.717Z,51.67
2022-07-28T17:55:58.017Z,52.80
2022-07-28T17:58:29.025Z,52.00
2022-07-28T18:00:58.808Z,51.20
2022-07-28T18:03:59.189Z,49.30
2022-07-28T18:06:26.017Z,48.77
2022-07-28T18:09:04.793Z,54.80
2022-07-28T18:11:35.215Z,49.60
2022-07-28T18:14:06.486Z,50.73
2022-07-28T18:16:35.115Z,48.97
2022-07-28T18:19:03.458Z,50.57
2022-07-28T18:21:32.048Z,48.93
2022-07-28T18:24:03.873Z,51.80
2022-07-28T18:26:32.171Z,51.10
2022-07-28T18:29:00.420Z,47.87
2022-07-28T18:31:30.840Z,47.80
2022-07-28T18:33:59.161Z,50.43
2022-07-28T18:36:27.341Z,49.53
2022-07-28T18:38:55.525Z,49.03
2022-07-28T18:41:23.715Z,56.20
2022-07-28T18:43:52.037Z,49.37
2022-07-28T18:46:20.255Z,51.70
2022-07-28T18:48:53.722Z,48.53
2022-07-28T18:51:25.647Z,47.23
2022-07-28T18:53:54.331Z,47.90
2022-07-28T18:56:22.600Z,49.87
2022-07-28T18:58:54.041Z,47.57
2022-07-28T19:01:22.326Z,50.30
2022-07-28T19:03:51.921Z,45.43
2022-07-28T19:06:20.596Z,52.90
2022-07-28T19:08:48.938Z,45.93
2022-07-28T19:11:19.872Z,48.73
2022-07-28T19:13:48.465Z,46.27
2022-07-28T19:16:16.775Z,49.93
2022-07-28T19:18:45.042Z,45.37
2022-07-28T19:21:16.329Z,47.30
2022-07-28T19:23:44.647Z,44.43
2022-07-28T19:26:12.911Z,45.63
2022-07-28T19:28:42.241Z,46.17
2022-07-28T19:31:11.008Z,45.47
2022-07-28T19:33:43.874Z,45.07
2022-07-28T19:36:13.461Z,45.00
2022-07-28T19:38:44.467Z,43.17
2022-07-28T19:41:13.676Z,43.10
2022-07-28T19:43:53.496Z,42.83
2022-07-28T19:46:26.104Z,45.03
2022-07-28T19:48:59.147Z,44.00
2022-07-28T19:51:28.756Z,43.63
2022-07-28T19:54:00.076Z,42.53
2022-07-28T19:56:31.439Z,44.20
2022-07-28T19:59:01.758Z,43.70
2022-07-28T20:01:35.299Z,31.50
2022-07-28T20:04:06.651Z,31.67
2022-07-28T20:06:36.793Z,43.83
2022-07-28T20:09:24.301Z,31.43
2022-07-28T20:11:57.897Z,27.37
2022-07-28T20:15:05.454Z,27.00
2022-07-28T20:18:11.209Z,26.47
2022-07-28T20:23:41.418Z,26.90
2022-07-28T20:26:36.549Z,26.97
2022-07-28T20:29:08.148Z,28.67
2022-07-28T20:38:49.210Z,40.20
2022-07-28T20:41:19.386Z,29.73
2022-07-28T20:44:37.622Z,45.33
2022-07-28T20:50:14.616Z,32.90
2022-07-28T20:52:47.225Z,30.43
2022-07-28T20:55:21.623Z,41.00
2022-07-28T21:00:55.322Z,44.83
2022-07-28T21:03:25.599Z,41.40
2022-07-28T21:05:54.315Z,41.67
2022-07-28T21:09:05.759Z,53.03
2022-07-28T21:11:39.670Z,42.80
2022-07-28T21:17:08.916Z,30.87
2022-07-28T21:19:38.522Z,42.53
2022-07-28T21:22:07.829Z,43.03
2022-07-28T21:24:36.081Z,42.80
2022-07-28T21:27:04.268Z,41.83
2022-07-28T21:29:31.491Z,42.83
2022-07-28T21:32:05.067Z,32.97
2022-07-28T21:34:34.749Z,31.57
2022-07-28T21:37:04.590Z,42.07
2022-07-28T21:39:32.920Z,41.97
2022-07-28T21:42:02.894Z,45.27
2022-07-28T21:44:34.008Z,30.03
2022-07-28T21:47:02.262Z,28.83
2022-07-28T21:49:31.199Z,31.53
2022-07-28T21:51:59.575Z,32.27
2022-07-28T21:54:29.274Z,31.93
2022-07-28T21:56:57.551Z,42.63
2022-07-28T21:59:25.801Z,30.97
2022-07-28T22:01:54.091Z,43.67
2022-07-28T22:04:22.427Z,27.00
2022-07-28T22:06:51.000Z,27.23
2022-07-28T22:09:19.246Z,42.63
2022-07-28T22:11:48.974Z,27.57
2022-07-28T22:14:17.445Z,28.83
2022-07-28T22:16:45.835Z,30.03
2022-07-28T22:19:14.066Z,28.43
2022-07-28T22:21:42.317Z,27.40
2022-07-28T22:24:10.597Z,28.43
2022-07-28T22:26:38.872Z,30.17
2022-07-28T22:29:08.570Z,26.40
2022-07-28T22:31:36.844Z,26.27
2022-07-28T22:34:05.366Z,26.63
2022-07-28T22:36:33.605Z,28.60
2022-07-28T22:39:01.902Z,26.40
2022-07-28T22:41:30.215Z,26.47
2022-07-28T22:43:58.406Z,31.37
2022-07-28T22:46:28.125Z,26.03
2022-07-28T22:48:56.491Z,27.27
2022-07-28T22:51:24.777Z,27.87
2022-07-28T22:53:53.173Z,27.83
2022-07-28T22:56:21.510Z,26.67
2022-07-28T22:58:49.759Z,26.07
2022-07-28T23:01:18.078Z,26.50
2022-07-28T23:03:47.891Z,26.13
2022-07-28T23:06:16.175Z,24.93
2022-07-28T23:08:44.452Z,28.00
2022-07-28T23:11:12.688Z,27.47
2022-07-28T23:13:40.911Z,26.07
2022-07-28T23:16:09.322Z,26.40
2022-07-28T23:18:39.822Z,30.50
2022-07-28T23:21:09.715Z,26.67
2022-07-28T23:23:38.390Z,26.47
2022-07-28T23:26:06.944Z,26.27
2022-07-28T23:28:36.224Z,27.97
2022-07-28T23:31:04.581Z,26.80
2022-07-28T23:33:54.241Z,26.13
2022-07-28T23:36:26.726Z,25.80
2022-07-28T23:38:56.041Z,25.73
2022-07-28T23:41:24.312Z,25.13
2022-07-28T23:43:52.560Z,26.30
2022-07-28T23:46:20.852Z,26.47
2022-07-28T23:48:49.388Z,26.43
2022-07-28T23:51:17.664Z,26.10
2022-07-28T23:53:47.375Z,26.30
2022-07-28T23:56:16.009Z,26.63
2022-07-28T23:58:44.240Z,25.47
